createdAt,value
2023-01-26T00:02:04.376Z,66.53
2023-01-26T00:04:32.070Z,66.33
2023-01-26T00:06:59.696Z,65.13
2023-01-26T00:09:27.349Z,66.30
2023-01-26T00:11:54.962Z,67.20
2023-01-26T00:14:22.600Z,65.63
2023-01-26T00:16:50.230Z,66.17
2023-01-26T00:19:19.472Z,57.63
2023-01-26T00:21:47.122Z,59.97
2023-01-26T00:24:14.863Z,63.27
2023-01-26T00:26:42.540Z,67.37
2023-01-26T00:29:10.225Z,68.87
2023-01-26T00:31:37.890Z,69.60
2023-01-26T00:34:05.551Z,60.03
2023-01-26T00:36:37.579Z,63.10
2023-01-26T00:39:05.258Z,66.20
2023-01-26T00:41:50.412Z,66.77
2023-01-26T00:44:18.095Z,57.07
2023-01-26T00:46:46.684Z,71.83
2023-01-26T00:49:14.451Z,69.30
2023-01-26T00:51:43.406Z,63.20
2023-01-26T00:54:11.087Z,66.07
2023-01-26T00:56:40.050Z,59.93
2023-01-26T00:59:07.735Z,59.00
2023-01-26T01:01:35.427Z,65.97
2023-01-26T01:04:03.117Z,63.50
2023-01-26T01:06:30.801Z,64.90
2023-01-26T01:08:59.769Z,64.33
2023-01-26T01:11:28.811Z,59.43
2023-01-26T01:13:58.001Z,64.80
2023-01-26T01:16:28.543Z,62.87
2023-01-26T01:18:56.917Z,59.97
2023-01-26T01:21:25.633Z,63.10
2023-01-26T01:23:54.237Z,58.83
2023-01-26T01:26:23.256Z,63.27
2023-01-26T01:28:55.646Z,57.67
2023-01-26T01:31:23.946Z,60.10
2023-01-26T01:33:52.860Z,57.73
2023-01-26T01:36:20.785Z,59.57
2023-01-26T01:38:48.822Z,58.97
2023-01-26T01:41:18.553Z,61.70
2023-01-26T01:43:47.870Z,61.53
2023-01-26T01:46:22.286Z,74.80
2023-01-26T01:48:54.989Z,61.93
2023-01-26T01:51:31.951Z,64.87
2023-01-26T01:54:05.507Z,55.40
2023-01-26T01:56:35.262Z,65.53
2023-01-26T01:59:06.947Z,63.83
2023-01-26T02:01:34.676Z,60.30
2023-01-26T02:04:06.060Z,60.87
2023-01-26T02:06:40.497Z,61.70
2023-01-26T02:09:29.959Z,58.87
2023-01-26T02:11:59.549Z,61.17
2023-01-26T02:14:29.739Z,59.57
2023-01-26T02:16:57.383Z,66.90
2023-01-26T02:19:33.971Z,64.00
2023-01-26T02:22:11.488Z,61.17
2023-01-26T02:24:41.082Z,59.70
2023-01-26T02:27:10.175Z,64.90
2023-01-26T02:29:38.271Z,55.27
2023-01-26T02:32:06.533Z,62.83
2023-01-26T02:34:34.305Z,60.97
2023-01-26T02:37:02.290Z,64.43
2023-01-26T02:39:45.001Z,64.23
2023-01-26T02:42:32.078Z,58.07
2023-01-26T02:45:00.907Z,60.10
2023-01-26T02:47:29.276Z,57.93
2023-01-26T02:49:58.171Z,69.57
2023-01-26T02:52:29.020Z,67.93
2023-01-26T02:55:22.350Z,58.20
2023-01-26T02:57:52.839Z,60.80
2023-01-26T03:00:22.327Z,58.40
2023-01-26T03:02:52.855Z,62.87
2023-01-26T03:05:20.727Z,59.83
2023-01-26T03:07:48.521Z,63.23
2023-01-26T03:10:18.129Z,60.37
2023-01-26T03:12:45.947Z,59.07
2023-01-26T03:15:32.696Z,61.27
2023-01-26T03:18:30.933Z,59.43
2023-01-26T03:21:18.250Z,62.20
2023-01-26T03:24:04.589Z,56.70
2023-01-26T03:26:51.373Z,53.33
2023-01-26T03:29:19.934Z,55.70
2023-01-26T03:31:49.712Z,59.00
2023-01-26T03:34:18.303Z,60.37
2023-01-26T03:36:47.415Z,56.47
2023-01-26T03:39:30.283Z,53.57
2023-01-26T03:42:15.593Z,54.77
2023-01-26T03:45:00.882Z,57.97
2023-01-26T03:47:47.996Z,51.37
2023-01-26T03:50:34.063Z,48.17
2023-01-26T03:53:19.309Z,51.17
2023-01-26T03:56:04.482Z,53.37
2023-01-26T03:58:32.208Z,43.70
2023-01-26T04:01:00.295Z,50.37
2023-01-26T04:03:47.282Z,51.03
2023-01-26T04:06:32.960Z,50.33
2023-01-26T04:09:00.675Z,46.27
2023-01-26T04:11:28.453Z,51.90
2023-01-26T04:14:13.792Z,55.53
2023-01-26T04:17:00.674Z,43.20
2023-01-26T04:19:47.312Z,43.70
2023-01-26T04:22:15.100Z,50.13
2023-01-26T04:24:44.822Z,47.53
2023-01-26T04:27:12.762Z,48.47
2023-01-26T04:29:42.094Z,50.97
2023-01-26T04:32:09.817Z,47.27
2023-01-26T04:34:38.936Z,51.77
2023-01-26T04:37:13.770Z,51.50
2023-01-26T04:39:46.427Z,45.00
2023-01-26T04:42:14.487Z,50.87
2023-01-26T04:44:42.783Z,47.77
2023-01-26T04:47:10.541Z,46.63
2023-01-26T04:49:40.536Z,48.67
2023-01-26T04:52:08.550Z,51.03
2023-01-26T04:54:36.644Z,47.63
2023-01-26T04:57:04.487Z,43.13
2023-01-26T04:59:32.357Z,49.90
2023-01-26T05:02:02.050Z,47.30
2023-01-26T05:04:29.929Z,49.23
2023-01-26T05:06:58.997Z,46.83
2023-01-26T05:09:27.730Z,46.90
2023-01-26T05:12:30.362Z,41.53
2023-01-26T05:15:27.314Z,40.90
2023-01-26T05:18:15.915Z,47.83
2023-01-26T05:21:10.059Z,41.07
2023-01-26T05:23:43.641Z,52.43
2023-01-26T05:26:28.044Z,44.57
2023-01-26T05:28:58.407Z,49.17
2023-01-26T05:31:27.136Z,50.43
2023-01-26T05:33:55.641Z,52.97
2023-01-26T05:36:24.938Z,46.27
2023-01-26T05:38:53.919Z,55.73
2023-01-26T05:41:25.248Z,47.57
2023-01-26T05:44:15.874Z,51.63
2023-01-26T05:46:47.984Z,49.57
2023-01-26T05:49:16.118Z,52.97
2023-01-26T05:51:43.869Z,50.37
2023-01-26T05:54:12.997Z,54.63
2023-01-26T05:56:40.993Z,56.37
2023-01-26T05:59:09.171Z,51.57
2023-01-26T06:01:36.953Z,54.50
2023-01-26T06:04:08.317Z,55.07
2023-01-26T06:06:42.790Z,56.90
2023-01-26T06:09:41.188Z,48.97
2023-01-26T06:12:31.380Z,54.13
2023-01-26T06:15:03.845Z,57.83
2023-01-26T06:17:40.990Z,53.83
2023-01-26T06:20:14.675Z,52.67
2023-01-26T06:22:45.598Z,54.50
2023-01-26T06:25:14.879Z,56.87
2023-01-26T06:27:42.897Z,53.97
2023-01-26T06:30:20.346Z,55.93
2023-01-26T06:32:49.232Z,52.63
2023-01-26T06:35:18.571Z,50.60
2023-01-26T06:37:49.198Z,56.70
2023-01-26T06:40:19.222Z,57.27
2023-01-26T06:42:48.485Z,58.33
2023-01-26T06:45:17.345Z,56.67
2023-01-26T06:47:48.724Z,57.73
2023-01-26T06:50:17.909Z,58.53
2023-01-26T06:52:48.649Z,60.90
2023-01-26T06:55:41.669Z,61.07
2023-01-26T06:58:35.521Z,56.47
2023-01-26T07:01:11.718Z,63.60
2023-01-26T07:03:39.486Z,60.00
2023-01-26T07:06:07.915Z,58.40
2023-01-26T07:08:35.564Z,59.93
2023-01-26T07:11:05.134Z,62.30
2023-01-26T07:13:33.853Z,55.70
2023-01-26T07:16:02.450Z,57.20
2023-01-26T07:18:30.243Z,59.07
2023-01-26T07:21:01.477Z,57.50
2023-01-26T07:23:29.143Z,56.50
2023-01-26T07:25:57.195Z,55.20
2023-01-26T07:28:26.404Z,54.73
2023-01-26T07:30:58.046Z,62.73
2023-01-26T07:33:25.697Z,60.07
2023-01-26T07:35:54.037Z,57.87
2023-01-26T07:38:22.110Z,56.93
2023-01-26T07:40:49.837Z,54.57
2023-01-26T07:43:17.441Z,56.10
2023-01-26T07:45:51.282Z,53.00
2023-01-26T07:48:19.574Z,50.90
2023-01-26T07:50:48.501Z,50.17
2023-01-26T07:53:19.172Z,52.83
2023-01-26T07:55:47.033Z,51.67
2023-01-26T07:58:14.913Z,53.97
2023-01-26T08:00:42.598Z,51.97
2023-01-26T08:03:11.672Z,48.80
2023-01-26T08:05:39.378Z,54.67
2023-01-26T08:08:09.591Z,50.27
2023-01-26T08:10:37.350Z,47.97
2023-01-26T08:13:05.024Z,51.67
2023-01-26T08:15:32.740Z,48.67
2023-01-26T08:18:03.545Z,50.47
2023-01-26T08:20:32.716Z,45.33
2023-01-26T08:23:00.584Z,54.10
2023-01-26T08:25:28.272Z,51.20
2023-01-26T08:27:56.268Z,48.70
2023-01-26T08:30:23.898Z,46.37
2023-01-26T08:32:51.627Z,46.70
2023-01-26T08:35:19.249Z,49.10
2023-01-26T08:37:48.248Z,47.67
2023-01-26T08:40:16.411Z,52.53
2023-01-26T08:42:44.061Z,51.37
2023-01-26T08:45:12.358Z,47.27
2023-01-26T08:47:40.032Z,54.10
2023-01-26T08:50:08.444Z,55.83
2023-01-26T08:52:36.237Z,50.83
2023-01-26T08:55:05.827Z,49.83
2023-01-26T08:57:33.494Z,50.73
2023-01-26T09:00:01.225Z,47.47
2023-01-26T09:02:29.363Z,50.33
2023-01-26T09:04:57.109Z,45.53
2023-01-26T09:07:24.885Z,45.43
2023-01-26T09:09:52.506Z,48.20
2023-01-26T09:12:21.521Z,47.83
2023-01-26T09:14:49.119Z,45.00
2023-01-26T09:17:16.744Z,47.87
2023-01-26T09:19:45.051Z,45.60
2023-01-26T09:22:12.865Z,45.30
2023-01-26T09:24:40.525Z,42.43
2023-01-26T09:27:09.075Z,46.27
2023-01-26T09:29:38.047Z,46.90
2023-01-26T09:32:06.700Z,42.83
2023-01-26T09:34:34.491Z,47.90
2023-01-26T09:37:02.243Z,46.40
2023-01-26T09:39:29.964Z,48.37
2023-01-26T09:42:10.882Z,47.33
2023-01-26T09:44:46.924Z,46.23
2023-01-26T09:47:22.692Z,47.03
2023-01-26T09:50:08.657Z,47.83
2023-01-26T09:52:41.880Z,47.87
2023-01-26T09:55:16.708Z,44.77
2023-01-26T09:57:49.921Z,50.83
2023-01-26T10:00:23.621Z,51.23
2023-01-26T10:03:04.525Z,48.37
2023-01-26T10:05:42.409Z,46.23
2023-01-26T10:08:13.955Z,49.83
2023-01-26T10:10:47.932Z,49.17
2023-01-26T10:13:18.203Z,53.83
2023-01-26T10:15:50.434Z,51.67
2023-01-26T10:18:22.923Z,48.87
2023-01-26T10:20:54.923Z,52.30
2023-01-26T10:23:25.835Z,52.33
2023-01-26T10:25:55.014Z,48.80
2023-01-26T10:28:28.358Z,55.00
2023-01-26T10:30:58.190Z,55.57
2023-01-26T10:33:29.039Z,58.23
2023-01-26T10:35:56.938Z,56.07
2023-01-26T10:38:29.468Z,57.17
2023-01-26T10:40:58.415Z,59.07
2023-01-26T10:43:26.635Z,58.83
2023-01-26T10:45:54.263Z,58.80
2023-01-26T10:48:26.599Z,65.17
2023-01-26T10:50:55.635Z,61.93
2023-01-26T10:53:25.341Z,60.47
2023-01-26T10:56:02.634Z,61.53
2023-01-26T10:58:47.526Z,58.97
2023-01-26T11:01:18.580Z,56.80
2023-01-26T11:04:03.318Z,61.87
2023-01-26T11:06:31.593Z,57.57
2023-01-26T11:09:10.414Z,69.10
2023-01-26T11:11:38.630Z,58.60
2023-01-26T11:14:14.764Z,63.53
2023-01-26T11:16:47.668Z,61.03
2023-01-26T11:19:26.211Z,56.30
2023-01-26T11:21:59.499Z,57.33
2023-01-26T11:24:34.595Z,56.43
2023-01-26T11:27:22.769Z,60.90
2023-01-26T11:30:19.969Z,60.73
2023-01-26T11:32:55.828Z,54.47
2023-01-26T11:35:33.041Z,52.57
2023-01-26T11:38:14.176Z,59.63
2023-01-26T11:40:49.004Z,53.27
2023-01-26T11:43:46.529Z,54.00
2023-01-26T11:46:29.957Z,53.70
2023-01-26T11:49:08.634Z,58.80
2023-01-26T11:51:52.590Z,54.90
2023-01-26T11:54:34.372Z,53.27
2023-01-26T11:57:12.203Z,50.70
2023-01-26T11:59:43.479Z,51.63
2023-01-26T12:02:28.287Z,58.30
2023-01-26T12:04:58.734Z,52.30
2023-01-26T12:07:31.195Z,60.77
2023-01-26T12:10:03.153Z,49.97
2023-01-26T12:12:38.605Z,53.43
2023-01-26T12:15:14.344Z,56.70
2023-01-26T12:17:49.742Z,61.37
2023-01-26T12:20:27.160Z,56.93
2023-01-26T12:23:04.554Z,59.23
2023-01-26T12:25:36.532Z,57.30
2023-01-26T12:28:17.784Z,59.73
2023-01-26T12:30:52.633Z,55.73
2023-01-26T12:33:20.581Z,50.43
2023-01-26T12:35:59.256Z,59.10
2023-01-26T12:38:39.094Z,55.47
2023-01-26T12:41:14.418Z,47.03
2023-01-26T12:43:58.756Z,56.80
2023-01-26T12:46:33.279Z,48.77
2023-01-26T12:49:06.248Z,49.20
2023-01-26T12:51:40.921Z,50.13
2023-01-26T12:54:17.536Z,49.27
2023-01-26T12:56:51.350Z,53.00
2023-01-26T12:59:46.641Z,52.27
2023-01-26T13:02:21.629Z,46.00
2023-01-26T13:04:51.094Z,52.53
2023-01-26T13:07:35.450Z,50.30
2023-01-26T13:10:44.813Z,45.90
2023-01-26T13:13:31.149Z,45.70
2023-01-26T13:16:32.632Z,43.90
2023-01-26T13:19:01.758Z,40.33
2023-01-26T13:21:42.060Z,48.63
2023-01-26T13:24:43.319Z,47.07
2023-01-26T13:27:31.892Z,41.73
2023-01-26T13:30:00.172Z,45.30
2023-01-26T13:33:10.004Z,48.20
2023-01-26T13:35:38.855Z,48.83
2023-01-26T13:38:15.668Z,47.00
2023-01-26T13:40:46.232Z,48.70
2023-01-26T13:43:27.126Z,52.00
2023-01-26T13:46:05.823Z,54.63
2023-01-26T13:48:41.116Z,57.27
2023-01-26T13:51:10.441Z,61.70
2023-01-26T13:53:41.316Z,66.67
2023-01-26T13:56:23.480Z,66.13
2023-01-26T13:58:53.251Z,58.60
2023-01-26T14:01:22.060Z,65.67
2023-01-26T14:03:49.808Z,61.63
2023-01-26T14:06:20.708Z,61.50
2023-01-26T14:08:54.044Z,68.60
2023-01-26T14:11:24.321Z,60.43
2023-01-26T14:13:56.036Z,62.40
2023-01-26T14:16:26.655Z,58.23
2023-01-26T14:19:06.235Z,62.87
2023-01-26T14:21:34.091Z,58.03
2023-01-26T14:24:01.821Z,58.33
2023-01-26T14:26:32.400Z,58.60
2023-01-26T14:29:03.295Z,59.93
2023-01-26T14:31:32.178Z,60.37
2023-01-26T14:34:00.757Z,55.80
2023-01-26T14:36:32.168Z,67.43
2023-01-26T14:39:01.033Z,58.70
2023-01-26T14:41:31.864Z,57.57
2023-01-26T14:44:01.823Z,62.43
2023-01-26T14:46:37.377Z,55.17
2023-01-26T14:49:10.718Z,55.93
2023-01-26T14:51:38.820Z,54.53
2023-01-26T14:54:15.674Z,54.57
2023-01-26T14:56:48.661Z,55.57
2023-01-26T14:59:23.323Z,53.17
2023-01-26T15:01:51.265Z,57.30
2023-01-26T15:04:25.918Z,52.97
2023-01-26T15:06:53.623Z,52.63
2023-01-26T15:09:24.124Z,53.03
2023-01-26T15:12:15.241Z,58.50
2023-01-26T15:14:52.229Z,53.63
2023-01-26T15:17:39.421Z,51.57
2023-01-26T15:20:27.383Z,56.50
2023-01-26T15:22:55.508Z,57.10
2023-01-26T15:25:26.285Z,62.00
2023-01-26T15:27:58.512Z,55.97
2023-01-26T15:30:31.430Z,61.57
2023-01-26T15:32:59.938Z,54.03
2023-01-26T15:35:29.396Z,65.47
2023-01-26T15:38:02.575Z,64.00
2023-01-26T15:40:31.325Z,66.33
2023-01-26T15:43:13.224Z,74.60
2023-01-26T15:45:48.009Z,59.70
2023-01-26T15:48:15.624Z,60.30
2023-01-26T15:50:43.310Z,64.73
2023-01-26T15:53:14.408Z,67.17
2023-01-26T15:55:43.760Z,56.07
2023-01-26T15:58:11.354Z,58.33
2023-01-26T16:00:40.030Z,57.87
2023-01-26T16:03:15.666Z,54.40
2023-01-26T16:05:44.029Z,57.30
2023-01-26T16:08:11.735Z,57.90
2023-01-26T16:10:39.523Z,57.03
2023-01-26T16:13:10.699Z,57.17
2023-01-26T16:15:40.981Z,54.77
2023-01-26T16:18:10.194Z,56.23
2023-01-26T16:20:40.787Z,52.33
2023-01-26T16:23:17.942Z,59.50
2023-01-26T16:25:46.407Z,59.17
2023-01-26T16:28:14.768Z,52.10
2023-01-26T16:30:43.782Z,59.03
2023-01-26T16:33:15.400Z,57.93
2023-01-26T16:35:43.465Z,52.33
2023-01-26T16:38:12.960Z,58.07
2023-01-26T16:40:41.709Z,59.53
2023-01-26T16:43:17.414Z,63.53
2023-01-26T16:45:45.187Z,52.63
2023-01-26T16:48:16.604Z,53.03
2023-01-26T16:50:45.598Z,48.97
2023-01-26T16:53:19.189Z,58.00
2023-01-26T16:55:46.938Z,51.00
2023-01-26T16:58:14.582Z,52.90
2023-01-26T17:00:42.366Z,58.63
2023-01-26T17:03:12.905Z,51.43
2023-01-26T17:05:42.288Z,57.93
2023-01-26T17:08:10.042Z,53.83
2023-01-26T17:10:40.113Z,59.23
2023-01-26T17:13:14.997Z,54.73
2023-01-26T17:15:42.725Z,60.90
2023-01-26T17:18:11.911Z,54.03
2023-01-26T17:20:41.259Z,57.03
2023-01-26T17:23:10.315Z,50.17
2023-01-26T17:25:37.897Z,52.93
2023-01-26T17:28:05.657Z,63.37
2023-01-26T17:30:33.526Z,61.10
2023-01-26T17:33:01.927Z,61.87
2023-01-26T17:35:29.601Z,59.40
2023-01-26T17:37:57.237Z,59.90
2023-01-26T17:40:26.237Z,64.03
2023-01-26T17:42:54.391Z,56.10
2023-01-26T17:45:23.166Z,64.50
2023-01-26T17:47:50.849Z,63.17
2023-01-26T17:50:18.526Z,62.83
2023-01-26T17:52:46.188Z,61.97
2023-01-26T17:55:14.047Z,60.57
2023-01-26T17:57:43.202Z,55.77
2023-01-26T18:00:12.911Z,56.03
2023-01-26T18:02:40.691Z,62.40
2023-01-26T18:05:10.542Z,63.23
2023-01-26T18:07:38.373Z,61.37
2023-01-26T18:10:07.113Z,61.30
2023-01-26T18:12:36.596Z,59.73
2023-01-26T18:15:06.692Z,62.73
2023-01-26T18:17:34.509Z,62.07
2023-01-26T18:20:02.132Z,65.27
2023-01-26T18:22:30.042Z,64.27
2023-01-26T18:24:57.893Z,67.77
2023-01-26T18:27:25.729Z,60.93
2023-01-26T18:29:53.941Z,64.50
2023-01-26T18:32:22.952Z,61.60
2023-01-26T18:34:50.666Z,62.37
2023-01-26T18:37:18.341Z,56.93
2023-01-26T18:39:45.991Z,60.37
2023-01-26T18:42:13.635Z,55.03
2023-01-26T18:44:41.523Z,57.87
2023-01-26T18:47:10.268Z,60.90
2023-01-26T18:49:39.389Z,60.87
2023-01-26T18:52:07.021Z,50.63
2023-01-26T18:54:34.905Z,61.80
2023-01-26T18:57:02.561Z,61.17
2023-01-26T18:59:30.435Z,53.77
2023-01-26T19:01:58.129Z,54.40
2023-01-26T19:04:25.980Z,50.43
2023-01-26T19:06:54.990Z,52.27
2023-01-26T19:09:22.641Z,58.20
2023-01-26T19:11:51.225Z,53.67
2023-01-26T19:14:18.830Z,56.20
2023-01-26T19:16:48.988Z,58.43
2023-01-26T19:19:16.741Z,52.53
2023-01-26T19:21:44.374Z,51.83
2023-01-26T19:24:13.434Z,60.40
2023-01-26T19:26:41.112Z,55.60
2023-01-26T19:29:10.657Z,56.47
2023-01-26T19:31:38.410Z,50.73
2023-01-26T19:34:08.661Z,49.73
2023-01-26T19:36:37.577Z,54.20
2023-01-26T19:39:06.184Z,57.83
2023-01-26T19:41:35.717Z,53.73
2023-01-26T19:44:03.468Z,53.77
2023-01-26T19:46:31.328Z,56.17
2023-01-26T19:48:59.019Z,63.27
2023-01-26T19:51:27.693Z,61.77
2023-01-26T19:53:57.310Z,56.80
2023-01-26T19:56:26.685Z,55.47
2023-01-26T19:58:57.379Z,51.00
2023-01-26T20:01:25.696Z,44.13
2023-01-26T20:03:54.772Z,47.80
2023-01-26T20:06:24.649Z,45.63
2023-01-26T20:08:54.114Z,51.67
2023-01-26T20:11:25.020Z,48.33
2023-01-26T20:13:56.996Z,51.33
2023-01-26T20:16:24.879Z,48.07
2023-01-26T20:18:52.620Z,50.20
2023-01-26T20:21:20.267Z,52.77
2023-01-26T20:23:54.350Z,50.63
2023-01-26T20:26:23.912Z,50.57
2023-01-26T20:28:51.766Z,53.33
2023-01-26T20:31:22.855Z,46.60
2023-01-26T20:33:52.845Z,54.83
2023-01-26T20:36:23.534Z,49.20
2023-01-26T20:38:51.324Z,44.80
2023-01-26T20:41:22.309Z,46.37
2023-01-26T20:43:59.707Z,46.60
2023-01-26T20:46:31.979Z,41.37
2023-01-26T20:49:00.110Z,44.40
2023-01-26T20:51:30.351Z,42.83
2023-01-26T20:53:59.111Z,44.87
2023-01-26T20:56:27.514Z,39.27
2023-01-26T20:58:56.747Z,44.30
2023-01-26T21:01:25.062Z,42.37
2023-01-26T21:03:54.288Z,45.60
2023-01-26T21:06:24.067Z,48.13
2023-01-26T21:08:55.008Z,46.47
2023-01-26T21:11:24.924Z,46.77
2023-01-26T21:13:52.809Z,45.30
2023-01-26T21:16:20.700Z,48.07
2023-01-26T21:18:49.311Z,48.93
2023-01-26T21:21:18.939Z,50.00
2023-01-26T21:23:46.892Z,54.53
2023-01-26T21:26:16.805Z,54.97
2023-01-26T21:28:44.981Z,58.83
2023-01-26T21:31:14.691Z,52.97
2023-01-26T21:33:44.609Z,54.27
2023-01-26T21:36:13.993Z,59.13
2023-01-26T21:38:44.729Z,49.37
2023-01-26T21:41:32.287Z,51.57
2023-01-26T21:44:01.242Z,49.03
2023-01-26T21:46:30.426Z,50.57
2023-01-26T21:48:58.201Z,53.73
2023-01-26T21:51:44.296Z,51.07
2023-01-26T21:54:13.828Z,47.40
2023-01-26T21:56:41.605Z,48.33
2023-01-26T21:59:14.541Z,46.50
2023-01-26T22:01:44.597Z,48.93
2023-01-26T22:04:15.411Z,47.83
2023-01-26T22:06:43.489Z,49.07
2023-01-26T22:09:14.818Z,51.13
2023-01-26T22:11:42.714Z,52.33
2023-01-26T22:14:14.831Z,48.93
2023-01-26T22:16:42.611Z,51.87
2023-01-26T22:19:11.141Z,50.87
2023-01-26T22:21:39.213Z,50.23
2023-01-26T22:24:09.378Z,53.40
2023-01-26T22:26:40.848Z,51.73
2023-01-26T22:29:08.798Z,51.00
2023-01-26T22:31:36.452Z,50.30
2023-01-26T22:34:04.237Z,52.13
2023-01-26T22:36:32.081Z,46.33
2023-01-26T22:39:00.754Z,48.53
2023-01-26T22:41:30.118Z,47.77
2023-01-26T22:44:00.446Z,48.97
2023-01-26T22:46:30.355Z,56.20
2023-01-26T22:48:59.489Z,48.77
2023-01-26T22:51:29.082Z,48.90
2023-01-26T22:53:58.563Z,46.80
2023-01-26T22:56:26.898Z,54.53
2023-01-26T22:58:58.460Z,48.23
2023-01-26T23:01:30.606Z,45.70
2023-01-26T23:04:00.306Z,48.33
2023-01-26T23:06:28.304Z,49.63
2023-01-26T23:08:58.066Z,48.03
2023-01-26T23:11:27.733Z,41.57
2023-01-26T23:13:57.101Z,49.33
2023-01-26T23:16:25.908Z,46.03
2023-01-26T23:18:57.473Z,42.50
2023-01-26T23:21:26.599Z,44.93
2023-01-26T23:23:54.361Z,47.50
2023-01-26T23:26:22.602Z,50.23
2023-01-26T23:28:50.458Z,50.20
2023-01-26T23:31:19.368Z,49.87
2023-01-26T23:33:47.354Z,47.70
2023-01-26T23:36:16.494Z,47.83
2023-01-26T23:38:45.643Z,48.20
2023-01-26T23:41:13.869Z,45.13
2023-01-26T23:43:41.611Z,47.03
2023-01-26T23:46:11.143Z,47.73
2023-01-26T23:48:38.817Z,49.43
2023-01-26T23:51:09.326Z,54.93
2023-01-26T23:53:38.889Z,51.97
2023-01-26T23:56:08.615Z,52.27
2023-01-26T23:58:37.327Z,52.87
